Time;durP1;ratioP1;P1;durP2;ratioP2;P2;SDS_P1;SDS_P2;PMS_P1;PMS_P2;Temp;Humidity;BMP_temperature;BMP_pressure;BME280_temperature;BME280_humidity;BME280_pressure;Samples;Min_cycle;Max_cycle;Signal;HPM_P1;HPM_P2
2023/12/18 00:04:42;;;;;;;12.27;7.90;;;5.50;99.90;;;;;;6289316;22;20538;-87
2023/12/18 00:07:07;;;;;;;15.93;7.93;;;5.50;99.90;;;;;;6282345;22;20156;-85
2023/12/18 00:09:33;;;;;;;11.37;7.57;;;5.50;99.90;;;;;;6282396;22;20234;-86
2023/12/18 00:11:59;;;;;;;10.53;7.60;;;5.50;99.90;;;;;;6282353;22;20571;-87
2023/12/18 00:14:30;;;;;;;10.30;7.63;;;5.50;99.90;;;;;;6281850;22;20194;-89
2023/12/18 00:16:56;;;;;;;10.90;7.33;;;5.50;99.90;;;;;;6282397;22;20152;-86
2023/12/18 00:19:22;;;;;;;10.40;8.07;;;5.50;99.90;;;;;;6282001;22;20187;-86
2023/12/18 00:21:47;;;;;;;11.97;8.10;;;5.40;99.90;;;;;;6282317;22;20239;-86
2023/12/18 00:24:13;;;;;;;10.60;7.83;;;5.40;99.90;;;;;;6282206;22;20152;-86
2023/12/18 00:26:39;;;;;;;16.00;8.67;;;5.40;99.90;;;;;;6282035;22;20183;-88
2023/12/18 00:29:05;;;;;;;11.23;7.97;;;5.40;99.90;;;;;;6282758;22;20497;-91
2023/12/18 00:31:30;;;;;;;10.47;7.60;;;5.40;99.90;;;;;;6284020;22;20202;-86
2023/12/18 00:33:56;;;;;;;10.60;7.43;;;5.50;99.90;;;;;;6310655;22;20280;-86
2023/12/18 00:36:23;;;;;;;11.47;8.10;;;5.40;99.90;;;;;;6283800;22;20214;-85
2023/12/18 00:38:49;;;;;;;9.87;7.37;;;5.40;99.90;;;;;;6284215;22;20155;-86
2023/12/18 00:41:14;;;;;;;13.73;9.07;;;5.40;99.90;;;;;;6284035;22;20160;-88
2023/12/18 00:43:40;;;;;;;10.43;7.50;;;5.40;99.90;;;;;;6284063;22;20566;-86
2023/12/18 00:46:08;;;;;;;13.13;8.00;;;5.40;99.90;;;;;;6283930;22;20155;-86
2023/12/18 00:48:34;;;;;;;10.57;7.70;;;5.30;99.90;;;;;;6283619;22;20155;-87
2023/12/18 00:51:02;;;;;;;14.10;7.43;;;5.30;99.90;;;;;;6284117;22;20531;-87
2023/12/18 00:53:28;;;;;;;12.90;7.80;;;5.30;99.90;;;;;;6284126;22;20160;-87
2023/12/18 00:55:57;;;;;;;9.37;7.23;;;5.30;99.90;;;;;;6283653;22;20198;-85
2023/12/18 00:58:22;;;;;;;8.70;7.00;;;5.30;99.90;;;;;;6284020;22;20675;-85
2023/12/18 01:00:48;;;;;;;8.27;6.67;;;5.20;99.90;;;;;;6283965;22;20163;-86
2023/12/18 01:03:14;;;;;;;14.27;8.33;;;5.20;99.90;;;;;;6310496;22;20179;-85
2023/12/18 01:05:42;;;;;;;14.53;7.50;;;5.20;99.90;;;;;;6310928;22;20142;-88
2023/12/18 01:08:08;;;;;;;9.47;7.40;;;5.10;99.90;;;;;;6283807;22;20190;-87
2023/12/18 01:10:34;;;;;;;10.23;6.90;;;5.10;99.90;;;;;;6283669;22;20156;-86
2023/12/18 01:12:59;;;;;;;11.07;7.37;;;5.00;99.90;;;;;;6283728;22;20447;-86
2023/12/18 01:15:26;;;;;;;12.37;7.50;;;5.00;99.90;;;;;;6283306;22;20225;-86
2023/12/18 01:17:52;;;;;;;9.70;7.10;;;5.00;99.90;;;;;;6283392;22;20163;-86
2023/12/18 01:20:18;;;;;;;9.67;6.83;;;5.00;99.90;;;;;;6310463;22;20152;-86
2023/12/18 01:22:43;;;;;;;9.83;7.20;;;5.10;99.90;;;;;;6283713;22;20159;-85
2023/12/18 01:25:09;;;;;;;10.53;7.10;;;5.00;99.90;;;;;;6283745;22;20474;-85
2023/12/18 01:27:35;;;;;;;7.73;6.33;;;5.00;99.90;;;;;;6283194;22;20148;-87
2023/12/18 01:30:02;;;;;;;9.47;7.23;;;5.00;99.90;;;;;;6283519;22;20569;-86
2023/12/18 01:32:27;;;;;;;9.67;7.00;;;5.00;99.90;;;;;;6310571;22;20178;-85
2023/12/18 01:34:55;;;;;;;13.00;6.97;;;5.00;99.90;;;;;;6283112;22;20595;-85
2023/12/18 01:37:21;;;;;;;12.77;7.90;;;5.00;99.90;;;;;;6283118;22;20152;-86
2023/12/18 01:39:47;;;;;;;10.73;7.30;;;4.90;99.90;;;;;;6283232;22;20584;-89
2023/12/18 01:42:12;;;;;;;11.40;6.90;;;4.90;99.90;;;;;;6283286;22;20210;-92
2023/12/18 01:44:38;;;;;;;9.37;7.37;;;5.00;99.90;;;;;;6283532;22;20160;-89
2023/12/18 01:47:09;;;;;;;9.77;7.27;;;5.00;99.90;;;;;;6283548;22;20159;-88
2023/12/18 01:49:36;;;;;;;9.90;7.30;;;5.00;99.90;;;;;;6283258;22;20231;-87
2023/12/18 01:52:03;;;;;;;10.40;7.33;;;5.00;99.90;;;;;;6309886;22;20230;-86
2023/12/18 01:54:29;;;;;;;9.03;6.87;;;5.00;99.90;;;;;;6283000;22;20188;-90
2023/12/18 01:56:59;;;;;;;11.53;8.07;;;5.00;99.90;;;;;;6283287;22;20159;-86
2023/12/18 01:59:25;;;;;;;10.37;7.60;;;5.00;99.90;;;;;;6310813;22;20140;-87
2023/12/18 02:01:51;;;;;;;9.40;7.33;;;5.00;99.90;;;;;;6283272;22;20183;-90
2023/12/18 02:04:18;;;;;;;10.20;7.47;;;5.00;99.90;;;;;;6283029;22;20415;-90
2023/12/18 02:06:45;;;;;;;13.30;8.07;;;5.00;99.90;;;;;;6283138;22;20166;-86
2023/12/18 02:09:11;;;;;;;11.00;7.87;;;5.00;99.90;;;;;;6282871;22;20227;-86
2023/12/18 02:11:37;;;;;;;11.47;7.27;;;5.00;99.90;;;;;;6283088;22;20156;-86
2023/12/18 02:14:05;;;;;;;11.20;7.40;;;5.00;99.90;;;;;;6283244;22;20179;-86
2023/12/18 02:16:31;;;;;;;11.33;7.47;;;5.00;99.90;;;;;;6309965;22;20162;-86
2023/12/18 02:18:57;;;;;;;12.30;8.40;;;5.00;99.90;;;;;;6310165;22;20132;-86
2023/12/18 02:21:22;;;;;;;10.97;7.70;;;5.10;99.90;;;;;;6282800;22;20155;-84
2023/12/18 02:23:49;;;;;;;12.83;7.90;;;5.10;99.90;;;;;;6283203;22;20159;-86
2023/12/18 02:26:17;;;;;;;15.67;8.43;;;5.10;99.90;;;;;;6282808;22;20158;-88
2023/12/18 02:28:45;;;;;;;14.23;8.90;;;5.10;99.90;;;;;;6310247;22;20559;-86
2023/12/18 02:31:15;;;;;;;11.07;8.03;;;5.20;99.90;;;;;;6282781;22;20163;-86
2023/12/18 02:33:42;;;;;;;13.73;8.27;;;5.20;99.90;;;;;;6282437;22;20162;-84
2023/12/18 02:36:09;;;;;;;14.13;8.43;;;5.10;99.90;;;;;;6283047;22;20164;-85
2023/12/18 02:38:35;;;;;;;13.03;8.27;;;5.10;99.90;;;;;;6282999;22;20159;-87
2023/12/18 02:41:01;;;;;;;14.63;8.13;;;5.10;99.90;;;;;;6282963;22;20459;-84
2023/12/18 02:43:26;;;;;;;15.87;8.53;;;5.10;99.90;;;;;;6283034;22;20243;-86
2023/12/18 02:45:54;;;;;;;13.00;8.60;;;5.10;99.90;;;;;;6283013;22;20238;-86
2023/12/18 02:48:20;;;;;;;15.97;9.70;;;5.00;99.90;;;;;;6282515;22;20205;-86
2023/12/18 02:50:46;;;;;;;18.23;8.60;;;5.10;99.90;;;;;;6282701;22;20188;-86
2023/12/18 02:53:12;;;;;;;12.93;8.87;;;5.10;99.90;;;;;;6282568;22;20156;-85
2023/12/18 02:55:37;;;;;;;13.43;8.63;;;5.00;99.90;;;;;;6282546;22;20191;-85
2023/12/18 02:58:03;;;;;;;12.80;8.27;;;5.00;99.90;;;;;;6282810;22;20151;-85
2023/12/18 03:00:29;;;;;;;14.30;9.30;;;5.10;99.90;;;;;;6282661;22;20163;-85
2023/12/18 03:02:54;;;;;;;16.47;9.00;;;5.00;99.90;;;;;;6282651;22;20151;-86
2023/12/18 03:05:20;;;;;;;17.93;9.27;;;5.00;99.90;;;;;;6282089;22;20164;-88
2023/12/18 03:07:47;;;;;;;15.97;9.70;;;5.00;99.90;;;;;;6309959;22;20147;-87
2023/12/18 03:10:13;;;;;;;15.03;9.30;;;5.10;99.90;;;;;;6282673;22;20167;-86
2023/12/18 03:12:38;;;;;;;22.17;10.47;;;5.10;99.90;;;;;;6282563;22;20156;-86
2023/12/18 03:15:05;;;;;;;17.50;9.87;;;5.10;99.90;;;;;;6282559;22;20191;-87
2023/12/18 03:17:31;;;;;;;15.33;10.10;;;5.10;99.90;;;;;;6282549;22;20181;-86
2023/12/18 03:19:57;;;;;;;18.77;10.67;;;5.10;99.90;;;;;;6282238;22;20243;-85
2023/12/18 03:22:23;;;;;;;21.97;10.70;;;5.10;99.90;;;;;;6282682;22;20616;-86
2023/12/18 03:24:49;;;;;;;20.17;10.97;;;5.10;99.90;;;;;;6282617;22;20156;-85
2023/12/18 03:27:18;;;;;;;16.03;10.57;;;5.20;99.90;;;;;;6282569;22;20241;-87
2023/12/18 03:29:43;;;;;;;18.03;11.40;;;5.30;99.90;;;;;;6282437;22;20156;-86
2023/12/18 03:32:09;;;;;;;20.83;12.03;;;5.30;99.90;;;;;;6282363;22;20156;-85
2023/12/18 03:34:35;;;;;;;20.10;11.67;;;5.40;99.90;;;;;;6281918;22;20238;-85
2023/12/18 03:37:04;;;;;;;17.87;11.07;;;5.50;99.90;;;;;;6282381;22;20159;-86
2023/12/18 03:39:29;;;;;;;19.63;10.53;;;5.60;99.90;;;;;;6282450;22;20254;-86
2023/12/18 03:41:57;;;;;;;18.40;10.53;;;5.70;99.90;;;;;;6282551;22;20462;-86
2023/12/18 03:44:22;;;;;;;18.87;11.10;;;5.70;99.90;;;;;;6282132;22;20183;-85
2023/12/18 03:46:52;;;;;;;19.80;10.70;;;5.70;99.90;;;;;;6282422;22;20174;-86
2023/12/18 03:49:18;;;;;;;19.10;11.73;;;5.60;99.90;;;;;;6282154;22;20243;-85
2023/12/18 03:51:44;;;;;;;16.13;10.73;;;5.60;99.90;;;;;;6309633;22;20175;-86
2023/12/18 03:54:09;;;;;;;20.63;10.87;;;5.70;99.90;;;;;;6282572;22;20648;-85
2023/12/18 03:56:35;;;;;;;21.83;12.03;;;5.70;99.90;;;;;;6282098;22;20170;-85
2023/12/18 03:59:01;;;;;;;17.30;11.57;;;5.70;99.90;;;;;;6282598;22;20148;-85
2023/12/18 04:01:34;;;;;;;22.00;11.37;;;5.70;99.90;;;;;;6282339;22;20156;-85
2023/12/18 04:04:00;;;;;;;18.20;11.13;;;5.70;99.90;;;;;;6282257;22;20198;-88
2023/12/18 04:06:26;;;;;;;18.53;11.30;;;5.70;99.90;;;;;;6284425;22;20155;-85
2023/12/18 04:08:52;;;;;;;17.93;10.47;;;5.70;99.90;;;;;;6284585;22;20152;-84
2023/12/18 04:11:21;;;;;;;16.73;11.13;;;5.80;99.90;;;;;;6284458;22;20159;-85
2023/12/18 04:13:49;;;;;;;22.47;11.93;;;5.80;99.90;;;;;;6284086;22;20162;-86
2023/12/18 04:16:15;;;;;;;18.17;10.73;;;5.70;99.90;;;;;;6284242;22;20263;-86
2023/12/18 04:18:41;;;;;;;15.80;10.23;;;5.70;99.90;;;;;;6283927;22;20574;-85
2023/12/18 04:21:07;;;;;;;17.87;11.10;;;5.80;99.90;;;;;;6284510;22;20217;-85
2023/12/18 04:23:32;;;;;;;23.53;11.67;;;5.70;99.90;;;;;;6284021;22;20151;-84
2023/12/18 04:25:58;;;;;;;21.57;11.30;;;5.60;99.90;;;;;;6284205;22;20152;-85
2023/12/18 04:28:26;;;;;;;19.70;10.90;;;5.70;99.90;;;;;;6283936;22;20163;-85
2023/12/18 04:30:51;;;;;;;17.67;10.83;;;5.60;99.90;;;;;;6311479;22;20144;-86
2023/12/18 04:33:17;;;;;;;17.17;11.20;;;5.50;99.90;;;;;;6284155;22;20163;-85
2023/12/18 04:35:43;;;;;;;18.97;11.53;;;5.50;99.90;;;;;;6283431;22;20184;-87
2023/12/18 04:38:10;;;;;;;15.47;11.10;;;5.60;99.90;;;;;;6284242;22;20164;-85
2023/12/18 04:40:35;;;;;;;18.67;11.13;;;5.60;99.90;;;;;;6283965;22;20586;-87
2023/12/18 04:43:01;;;;;;;17.13;10.50;;;5.60;99.90;;;;;;6283611;22;20152;-86
2023/12/18 04:45:27;;;;;;;16.47;10.77;;;5.60;99.90;;;;;;6283977;22;20148;-85
2023/12/18 04:47:54;;;;;;;17.20;11.73;;;5.60;99.90;;;;;;6283992;22;20156;-86
2023/12/18 04:50:19;;;;;;;23.40;11.47;;;5.50;99.90;;;;;;6283546;22;20159;-85
2023/12/18 04:52:45;;;;;;;16.47;10.47;;;5.60;99.90;;;;;;6283363;22;20482;-86
2023/12/18 04:55:11;;;;;;;19.70;11.13;;;5.60;99.90;;;;;;6283777;22;20184;-85
2023/12/18 04:57:39;;;;;;;18.10;11.43;;;5.80;99.90;;;;;;6283680;22;20170;-86
2023/12/18 05:00:05;;;;;;;15.97;11.20;;;5.90;99.90;;;;;;6283677;22;20231;-87
2023/12/18 05:02:31;;;;;;;21.63;11.57;;;5.80;99.90;;;;;;6283886;22;20152;-85
2023/12/18 05:04:57;;;;;;;18.47;11.27;;;5.80;99.90;;;;;;6283551;22;20264;-84
2023/12/18 05:07:26;;;;;;;20.93;12.10;;;5.80;99.90;;;;;;6283274;22;20152;-86
2023/12/18 05:09:52;;;;;;;15.00;11.23;;;5.80;99.90;;;;;;6283635;22;20155;-85
2023/12/18 05:12:18;;;;;;;19.07;11.33;;;5.80;99.90;;;;;;6283695;22;20183;-86
2023/12/18 05:14:43;;;;;;;18.90;12.13;;;5.80;99.90;;;;;;6283088;22;20248;-86
2023/12/18 05:17:11;;;;;;;16.63;10.67;;;5.80;99.90;;;;;;6311068;22;20218;-86
2023/12/18 05:19:37;;;;;;;23.90;11.57;;;5.80;99.90;;;;;;6283170;22;20148;-85
2023/12/18 05:22:03;;;;;;;17.63;11.13;;;5.90;99.90;;;;;;6283754;22;20156;-85
2023/12/18 05:24:29;;;;;;;19.30;10.47;;;5.90;99.90;;;;;;6283571;22;20239;-86
2023/12/18 05:26:55;;;;;;;16.10;10.40;;;5.90;99.90;;;;;;6283071;22;20186;-86
2023/12/18 05:29:20;;;;;;;19.90;10.70;;;5.90;99.90;;;;;;6283122;22;20156;-85
2023/12/18 05:31:46;;;;;;;15.57;9.77;;;5.90;99.90;;;;;;6283401;22;20167;-87
2023/12/18 05:34:12;;;;;;;17.10;11.30;;;5.90;99.90;;;;;;6282964;22;20225;-85
2023/12/18 05:36:37;;;;;;;19.13;10.83;;;5.90;99.90;;;;;;6283284;22;20478;-84
2023/12/18 05:39:03;;;;;;;18.07;11.17;;;5.90;99.90;;;;;;6282707;22;20235;-85
2023/12/18 05:41:29;;;;;;;18.03;11.00;;;5.90;99.90;;;;;;6283311;22;20152;-85
2023/12/18 05:43:55;;;;;;;15.40;9.93;;;5.80;99.90;;;;;;6282960;22;20152;-85
2023/12/18 05:46:20;;;;;;;17.93;10.17;;;5.90;99.90;;;;;;6310145;22;20151;-85
2023/12/18 05:48:47;;;;;;;14.43;10.23;;;5.80;99.90;;;;;;6282888;22;20242;-84
2023/12/18 05:51:24;;;;;;;15.17;10.33;;;5.90;99.90;;;;;;6283289;22;20159;-86
2023/12/18 05:53:49;;;;;;;16.00;10.23;;;5.90;99.90;;;;;;6283134;22;20182;-85
2023/12/18 05:56:16;;;;;;;21.17;11.00;;;5.90;99.90;;;;;;6283205;22;20152;-86
2023/12/18 05:58:42;;;;;;;15.90;9.90;;;5.90;99.90;;;;;;6283202;22;20516;-85
2023/12/18 06:01:08;;;;;;;12.30;9.97;;;5.90;99.90;;;;;;6283019;22;20200;-86
2023/12/18 06:03:34;;;;;;;21.20;11.00;;;5.80;99.90;;;;;;6282858;22;20256;-86
2023/12/18 06:06:00;;;;;;;13.03;9.80;;;5.90;99.90;;;;;;6309404;22;20189;-83
2023/12/18 06:08:25;;;;;;;16.73;10.63;;;5.90;99.90;;;;;;6280966;22;20237;-89
2023/12/18 06:10:51;;;;;;;16.50;9.83;;;5.90;99.90;;;;;;6281097;22;20152;-86
2023/12/18 06:13:17;;;;;;;16.10;9.80;;;5.90;99.90;;;;;;6282304;22;20620;-85
2023/12/18 06:15:43;;;;;;;15.77;10.07;;;5.90;99.90;;;;;;6282002;22;20206;-83
2023/12/18 06:18:08;;;;;;;17.07;9.23;;;5.90;99.90;;;;;;6282706;22;20148;-84
2023/12/18 06:20:34;;;;;;;18.43;10.33;;;5.80;99.90;;;;;;6282001;22;20209;-85
2023/12/18 06:23:00;;;;;;;15.53;10.00;;;5.80;99.90;;;;;;6283193;22;20559;-85
2023/12/18 06:25:25;;;;;;;15.07;9.97;;;5.90;99.90;;;;;;6282610;22;20163;-84
2023/12/18 06:27:51;;;;;;;13.43;9.73;;;5.80;99.90;;;;;;6282196;22;20159;-87
2023/12/18 06:30:17;;;;;;;17.40;10.57;;;5.80;99.90;;;;;;6282912;22;20159;-85
2023/12/18 06:32:43;;;;;;;14.17;9.80;;;5.80;99.90;;;;;;6281844;22;20152;-84
2023/12/18 06:35:08;;;;;;;16.77;9.97;;;5.80;99.90;;;;;;6310172;22;20180;-85
2023/12/18 06:37:34;;;;;;;13.23;9.40;;;5.80;99.90;;;;;;6282004;22;20258;-88
2023/12/18 06:40:02;;;;;;;16.93;9.80;;;5.80;99.90;;;;;;6282477;22;20163;-87
2023/12/18 06:42:28;;;;;;;16.83;10.60;;;5.80;99.90;;;;;;6282655;22;20585;-85
2023/12/18 06:44:53;;;;;;;17.40;10.10;;;5.80;99.90;;;;;;6282631;22;20155;-88
2023/12/18 06:47:19;;;;;;;16.93;9.90;;;5.80;99.90;;;;;;6282697;22;20156;-85
2023/12/18 06:49:47;;;;;;;14.17;9.73;;;5.80;99.90;;;;;;6282182;22;20555;-87
2023/12/18 06:52:14;;;;;;;18.80;10.03;;;5.80;99.90;;;;;;6282591;22;20551;-85
2023/12/18 06:54:40;;;;;;;15.33;9.73;;;5.80;99.90;;;;;;6282559;22;20179;-85
2023/12/18 06:57:07;;;;;;;15.83;10.70;;;5.80;99.90;;;;;;6309686;22;20590;-92
2023/12/18 06:59:36;;;;;;;14.43;10.27;;;5.80;99.90;;;;;;6282780;22;20152;-94
2023/12/18 07:02:03;;;;;;;17.00;10.40;;;5.80;99.90;;;;;;6308978;22;20162;-93
2023/12/18 07:04:29;;;;;;;14.60;9.93;;;5.80;99.90;;;;;;6282684;22;20199;-85
2023/12/18 07:06:54;;;;;;;13.07;10.03;;;5.80;99.90;;;;;;6282708;22;20159;-89
2023/12/18 07:09:24;;;;;;;20.30;10.83;;;5.80;99.90;;;;;;6310394;22;20198;-89
2023/12/18 07:11:50;;;;;;;20.80;11.47;;;5.80;99.90;;;;;;6282968;22;20189;-88
2023/12/18 07:14:16;;;;;;;16.83;10.90;;;5.80;99.90;;;;;;6282688;22;20592;-92
2023/12/18 07:16:43;;;;;;;19.10;11.47;;;5.70;99.90;;;;;;6282699;22;20175;-88
2023/12/18 07:19:09;;;;;;;19.50;11.60;;;5.80;99.90;;;;;;6282434;22;20215;-87
2023/12/18 07:21:35;;;;;;;17.33;11.33;;;5.70;99.90;;;;;;6282482;22;20152;-87
2023/12/18 07:24:00;;;;;;;20.30;11.90;;;5.80;99.90;;;;;;6282701;22;20151;-90
2023/12/18 07:26:26;;;;;;;18.80;12.20;;;5.80;99.90;;;;;;6282637;22;20656;-87
2023/12/18 07:28:52;;;;;;;19.27;12.33;;;5.80;99.90;;;;;;6282386;22;20160;-87
2023/12/18 07:31:20;;;;;;;17.70;11.73;;;5.70;99.90;;;;;;6282521;22;20160;-87
2023/12/18 07:33:46;;;;;;;20.23;12.40;;;5.70;99.90;;;;;;6282302;22;20183;-88
2023/12/18 07:36:11;;;;;;;20.47;12.13;;;5.70;99.90;;;;;;6281957;22;20198;-86
2023/12/18 07:38:37;;;;;;;18.33;11.37;;;5.70;99.90;;;;;;6283216;22;20285;-86
2023/12/18 07:41:04;;;;;;;19.30;12.27;;;5.70;99.90;;;;;;6284425;22;20159;-85
2023/12/18 07:43:30;;;;;;;19.90;12.33;;;5.70;99.90;;;;;;6311834;22;20546;-86
2023/12/18 07:45:56;;;;;;;20.87;11.90;;;5.70;99.90;;;;;;6283729;22;20152;-89
2023/12/18 07:48:24;;;;;;;18.53;11.50;;;5.70;99.90;;;;;;6311996;22;20236;-89
2023/12/18 07:50:50;;;;;;;20.50;13.17;;;5.70;99.90;;;;;;6284487;22;20183;-87
2023/12/18 07:53:16;;;;;;;15.83;11.70;;;5.70;99.90;;;;;;6284718;22;20567;-88
2023/12/18 07:55:42;;;;;;;19.87;12.60;;;5.70;99.90;;;;;;6284459;22;20244;-86
2023/12/18 07:58:08;;;;;;;20.60;12.60;;;5.70;99.90;;;;;;6284403;22;20231;-86
2023/12/18 08:00:36;;;;;;;21.87;11.97;;;5.70;99.90;;;;;;6284243;22;20441;-85
2023/12/18 08:03:03;;;;;;;19.67;11.53;;;5.70;99.90;;;;;;6284605;22;20207;-88
2023/12/18 08:05:28;;;;;;;18.97;12.30;;;5.70;99.90;;;;;;6284318;22;20209;-87
2023/12/18 08:07:54;;;;;;;22.40;13.00;;;5.70;99.90;;;;;;6284393;22;20164;-86
2023/12/18 08:10:21;;;;;;;18.90;12.30;;;5.70;99.90;;;;;;6284198;22;20234;-86
2023/12/18 08:12:48;;;;;;;21.67;12.60;;;5.70;99.90;;;;;;6284294;22;20234;-88
2023/12/18 08:15:14;;;;;;;19.73;12.67;;;5.60;99.90;;;;;;6283973;22;20194;-87
2023/12/18 08:17:40;;;;;;;21.03;12.47;;;5.70;99.90;;;;;;6284060;22;20160;-89
2023/12/18 08:20:07;;;;;;;18.83;12.27;;;5.70;99.90;;;;;;6284242;22;20156;-86
2023/12/18 08:22:34;;;;;;;24.53;13.33;;;5.70;99.90;;;;;;6284336;22;20216;-86
2023/12/18 08:25:01;;;;;;;22.13;12.53;;;5.70;99.90;;;;;;6284118;22;20160;-85
2023/12/18 08:27:28;;;;;;;19.23;13.03;;;5.70;99.90;;;;;;6284082;22;20155;-86
2023/12/18 08:29:56;;;;;;;22.10;13.03;;;5.70;99.90;;;;;;6284027;22;20156;-87
2023/12/18 08:32:22;;;;;;;24.10;13.13;;;5.70;99.90;;;;;;6311375;22;20132;-87
2023/12/18 08:34:48;;;;;;;22.30;12.80;;;5.70;99.90;;;;;;6283910;22;20594;-87
2023/12/18 08:37:14;;;;;;;20.33;13.73;;;5.80;99.90;;;;;;6284061;22;20209;-87
2023/12/18 08:39:40;;;;;;;18.17;12.47;;;5.80;99.90;;;;;;6283825;22;20156;-86
2023/12/18 08:42:06;;;;;;;18.73;13.07;;;5.80;99.90;;;;;;6284022;22;20578;-89
2023/12/18 08:44:32;;;;;;;19.77;12.97;;;5.70;99.90;;;;;;6283793;22;20171;-87
2023/12/18 08:46:58;;;;;;;20.60;13.40;;;5.80;99.90;;;;;;6284017;22;20151;-86
2023/12/18 08:49:24;;;;;;;21.67;13.97;;;5.80;99.90;;;;;;6283777;22;20448;-86
2023/12/18 08:51:57;;;;;;;23.27;14.20;;;5.80;99.90;;;;;;6283978;22;20253;-86
2023/12/18 08:54:22;;;;;;;23.63;15.30;;;5.80;99.90;;;;;;6310833;22;20171;-86
2023/12/18 08:56:50;;;;;;;24.77;14.73;;;5.80;99.90;;;;;;6311210;22;20186;-87
2023/12/18 08:59:16;;;;;;;24.87;14.60;;;5.80;99.90;;;;;;6283798;22;20640;-88
2023/12/18 09:01:41;;;;;;;20.97;14.57;;;5.80;99.90;;;;;;6283899;22;20234;-86
2023/12/18 09:04:07;;;;;;;24.13;15.17;;;5.80;99.90;;;;;;6284002;22;20270;-87
2023/12/18 09:06:40;;;;;;;28.40;16.33;;;5.80;99.90;;;;;;6283549;22;20438;-86
2023/12/18 09:09:05;;;;;;;28.00;16.60;;;5.90;99.90;;;;;;6311056;22;20136;-86
2023/12/18 09:11:35;;;;;;;26.63;16.50;;;5.90;99.90;;;;;;6283720;22;20258;-89
2023/12/18 09:14:03;;;;;;;22.43;16.67;;;5.90;99.90;;;;;;6310792;22;20139;-89
2023/12/18 09:16:29;;;;;;;29.90;16.77;;;5.90;99.90;;;;;;6283497;22;20159;-87
2023/12/18 09:18:55;;;;;;;24.63;16.23;;;5.90;99.90;;;;;;6283837;22;20163;-87
2023/12/18 09:21:23;;;;;;;25.87;16.67;;;5.80;99.90;;;;;;6283369;22;20609;-87
2023/12/18 09:23:49;;;;;;;28.37;16.80;;;5.90;99.90;;;;;;6283827;22;20152;-87
2023/12/18 09:26:15;;;;;;;24.27;16.03;;;5.90;99.90;;;;;;6283538;22;20255;-88
2023/12/18 09:28:43;;;;;;;27.93;16.60;;;5.90;99.90;;;;;;6283840;22;20159;-87
2023/12/18 09:31:18;;;;;;;24.13;16.63;;;5.90;99.90;;;;;;6283593;22;20163;-86
2023/12/18 09:33:44;;;;;;;22.63;15.73;;;6.00;99.90;;;;;;6283643;22;20152;-85
2023/12/18 09:36:10;;;;;;;22.73;15.47;;;6.00;99.90;;;;;;6283293;22;20546;-86
2023/12/18 09:38:38;;;;;;;24.67;16.50;;;6.00;99.90;;;;;;6283565;22;20235;-89
2023/12/18 09:41:11;;;;;;;26.97;16.37;;;6.00;99.90;;;;;;6283509;22;20255;-87
2023/12/18 09:43:36;;;;;;;24.37;16.07;;;6.00;99.90;;;;;;6283582;22;20231;-87
2023/12/18 09:46:02;;;;;;;20.97;14.73;;;6.10;99.90;;;;;;6310417;22;20975;-86
2023/12/18 09:48:28;;;;;;;21.43;14.87;;;6.10;99.90;;;;;;6283474;22;20636;-85
2023/12/18 09:50:55;;;;;;;22.13;13.57;;;6.10;99.90;;;;;;6283499;22;20155;-86
2023/12/18 09:53:22;;;;;;;17.90;12.93;;;6.10;99.90;;;;;;6283195;22;20575;-87
2023/12/18 09:55:50;;;;;;;21.90;13.07;;;6.10;99.90;;;;;;6282951;22;20195;-86
2023/12/18 09:58:18;;;;;;;21.37;12.80;;;6.10;99.90;;;;;;6283281;22;20159;-86
2023/12/18 10:00:46;;;;;;;16.97;12.00;;;6.10;99.90;;;;;;6282508;22;20285;-85
2023/12/18 10:03:13;;;;;;;22.20;13.23;;;6.20;99.90;;;;;;6282297;22;20194;-86
2023/12/18 10:05:40;;;;;;;20.73;12.23;;;6.20;99.90;;;;;;6283098;22;20148;-86
2023/12/18 10:08:06;;;;;;;19.47;12.83;;;6.20;99.90;;;;;;6282967;22;20160;-87
2023/12/18 10:10:32;;;;;;;19.87;11.57;;;6.20;99.90;;;;;;6283140;22;20159;-86
2023/12/18 10:13:03;;;;;;;20.57;11.83;;;6.20;99.90;;;;;;6283427;22;20164;-89
2023/12/18 10:15:29;;;;;;;19.50;12.17;;;6.20;99.90;;;;;;6282798;22;20188;-88
2023/12/18 10:17:55;;;;;;;17.87;11.80;;;6.20;99.90;;;;;;6283043;22;20179;-86
2023/12/18 10:20:23;;;;;;;19.27;12.10;;;6.20;99.90;;;;;;6283096;22;20567;-87
2023/12/18 10:22:49;;;;;;;18.50;12.07;;;6.20;99.90;;;;;;6283219;22;20187;-86
2023/12/18 10:25:16;;;;;;;20.50;11.30;;;6.20;99.90;;;;;;6282749;22;20151;-87
2023/12/18 10:27:42;;;;;;;18.03;11.00;;;6.20;99.90;;;;;;6282971;22;20206;-86
2023/12/18 10:30:09;;;;;;;18.00;10.77;;;6.20;99.90;;;;;;6282564;22;20159;-86
2023/12/18 10:32:36;;;;;;;17.13;10.43;;;6.20;99.90;;;;;;6282927;22;20462;-87
2023/12/18 10:35:03;;;;;;;15.63;11.13;;;6.20;99.90;;;;;;6282594;22;20211;-88
2023/12/18 10:37:30;;;;;;;14.57;10.27;;;6.20;99.90;;;;;;6282539;22;20443;-86
2023/12/18 10:40:04;;;;;;;16.80;10.83;;;6.30;99.90;;;;;;6283104;22;20257;-87
2023/12/18 10:42:39;;;;;;;14.60;10.17;;;6.30;99.90;;;;;;6310074;22;20128;-87
2023/12/18 10:45:06;;;;;;;15.77;10.13;;;6.30;99.90;;;;;;6282599;22;20147;-83
2023/12/18 10:47:32;;;;;;;14.00;9.33;;;6.30;99.90;;;;;;6282974;22;20457;-87
2023/12/18 10:50:03;;;;;;;12.70;9.30;;;6.40;99.90;;;;;;6284047;22;20243;-88
2023/12/18 10:52:32;;;;;;;16.20;10.03;;;6.40;99.90;;;;;;6283838;22;20144;-88
2023/12/18 10:55:04;;;;;;;15.07;9.87;;;6.40;99.90;;;;;;6283494;22;20618;-85
2023/12/18 10:57:32;;;;;;;15.20;8.60;;;6.40;99.90;;;;;;6282787;22;20152;-87
2023/12/18 10:59:59;;;;;;;14.83;8.93;;;6.40;99.90;;;;;;6282678;22;20187;-87
2023/12/18 11:02:28;;;;;;;14.73;9.90;;;6.40;99.90;;;;;;6282550;22;20217;-88
2023/12/18 11:04:54;;;;;;;14.67;9.30;;;6.50;99.90;;;;;;6254598;22;20272;-87
2023/12/18 11:07:20;;;;;;;13.27;8.90;;;6.50;99.90;;;;;;6251926;22;20164;-94
2023/12/18 11:09:47;;;;;;;13.00;8.83;;;6.50;99.90;;;;;;6252064;22;20156;-88
2023/12/18 11:12:27;;;;;;;12.87;8.83;;;6.50;99.90;;;;;;6251855;22;20160;-89
2023/12/18 11:15:31;;;;;;;16.93;8.10;;;6.50;99.90;;;;;;6251463;22;20263;-87
2023/12/18 11:18:17;;;;;;;12.60;8.67;;;6.60;99.90;;;;;;6278462;22;20160;-93
2023/12/18 11:20:43;;;;;;;13.63;8.47;;;6.60;99.90;;;;;;6251810;22;20152;-88
2023/12/18 11:23:13;;;;;;;15.30;8.93;;;6.60;99.90;;;;;;6252155;22;20198;-90
2023/12/18 11:25:46;;;;;;;13.27;8.50;;;6.60;99.90;;;;;;6252270;22;20574;-93
2023/12/18 11:28:18;;;;;;;12.93;8.23;;;6.60;99.90;;;;;;6252765;22;20247;-89
2023/12/18 11:30:44;;;;;;;11.17;7.90;;;6.60;99.90;;;;;;6252687;22;20149;-89
2023/12/18 11:33:16;;;;;;;12.23;7.93;;;6.60;99.90;;;;;;6252710;22;20163;-92
2023/12/18 11:35:48;;;;;;;13.07;8.07;;;6.60;99.90;;;;;;6252441;22;20192;-94
2023/12/18 11:38:18;;;;;;;11.17;7.57;;;6.70;99.90;;;;;;6280247;22;20194;-89
2023/12/18 11:40:45;;;;;;;10.47;7.70;;;6.70;99.90;;;;;;6253153;22;20156;-89
2023/12/18 11:43:35;;;;;;;13.90;8.20;;;6.80;99.90;;;;;;6253124;22;20160;-89
2023/12/18 11:46:01;;;;;;;12.23;8.07;;;6.80;99.90;;;;;;6252573;22;20156;-89
2023/12/18 11:48:27;;;;;;;13.40;7.90;;;6.90;99.90;;;;;;6252875;22;20235;-89
2023/12/18 11:50:53;;;;;;;12.30;7.93;;;6.90;99.90;;;;;;6279311;22;20149;-89
2023/12/18 11:53:35;;;;;;;13.33;8.27;;;6.90;99.90;;;;;;6252852;22;20179;-88
2023/12/18 11:56:09;;;;;;;10.40;7.27;;;7.00;99.90;;;;;;6252255;22;20191;-93
2023/12/18 11:58:36;;;;;;;11.03;7.27;;;7.00;99.90;;;;;;6252979;22;20177;-96
2023/12/18 12:01:03;;;;;;;10.40;7.40;;;7.00;99.90;;;;;;6280318;22;20148;-91
2023/12/18 12:03:30;;;;;;;11.87;7.13;;;7.10;99.90;;;;;;6255806;22;20196;-88
2023/12/18 12:05:56;;;;;;;10.80;7.30;;;7.10;99.90;;;;;;6252839;22;20156;-95
2023/12/18 12:08:22;;;;;;;9.70;7.20;;;7.10;99.90;;;;;;6253492;22;20439;-92
2023/12/18 12:10:50;;;;;;;10.50;7.90;;;7.10;99.90;;;;;;6252957;22;20160;-89
2023/12/18 12:13:23;;;;;;;9.20;7.03;;;7.10;99.90;;;;;;6254155;22;20157;-92
2023/12/18 12:16:00;;;;;;;8.53;6.67;;;7.10;99.90;;;;;;6254569;22;20204;-95
2023/12/18 12:18:30;;;;;;;9.23;7.23;;;7.10;99.90;;;;;;6253711;22;20199;-96
2023/12/18 12:20:56;;;;;;;10.40;7.43;;;7.00;99.90;;;;;;6252980;22;20159;-96
2023/12/18 12:23:24;;;;;;;8.90;7.07;;;7.00;99.90;;;;;;6252507;22;20228;-89
2023/12/18 12:25:56;;;;;;;9.40;7.27;;;7.10;99.90;;;;;;6252382;22;20165;-89
2023/12/18 12:28:22;;;;;;;10.03;7.07;;;7.10;99.90;;;;;;6253798;22;20156;-87
2023/12/18 12:30:48;;;;;;;9.80;7.20;;;7.10;99.90;;;;;;6253217;22;20572;-87
2023/12/18 12:33:17;;;;;;;9.67;7.37;;;7.10;99.90;;;;;;6253572;22;20232;-86
2023/12/18 12:35:45;;;;;;;11.97;7.30;;;7.10;99.90;;;;;;6253174;22;20600;-86
2023/12/18 12:38:10;;;;;;;10.27;7.10;;;7.00;99.90;;;;;;6253454;22;20178;-87
2023/12/18 12:40:38;;;;;;;9.57;6.60;;;7.00;99.90;;;;;;6253677;22;20161;-87
2023/12/18 12:43:05;;;;;;;10.37;6.83;;;7.00;99.90;;;;;;6253842;22;20202;-87
2023/12/18 12:45:31;;;;;;;10.47;6.70;;;7.00;99.90;;;;;;6252783;22;20160;-86